Vliegveld Midden-Zeeland

EHMZ · Zeeland, 荷兰

罗盘
风向 的 风向 190° Vliegveld Midden-Zeeland  9/27
风: 13 kt, 4 beaufort

3 kt

13 kt
改变
0 1.000 2.000 3.000 4.000 5.000
没有观察到明显的云
METAR EHFS 041025Z AUTO 19013KT 9999 NSC 15/12 Q1019

METAR Vliegveld Midden-Zeeland - EHMZ

Vliegveld Midden-Zeeland 是Middelburg,荷兰中的小机场。 该机场有一条跑道: 9/27. 该领域的国际民航组织标志是EHMZ.

这份报告是针对2022年10月4日 12:25, 当地时间在Vlissingen进行的。

机场观察

风向为190°,速度为13 kt。

可见度为10 km 或者更多。

有没有观察到明显的云。 没有观察到天花板。

温度和风寒是15 °C。 露点为12 °C,相对湿度为82%。 海平面上的气压为1019 hPa (QNH)。

白天

今天,太阳从07:50升起,在19:16降落。 这适用于Vliegveld Midden-Zeeland ,世界夏令时可能有所不同。 当地时间与世界标准时间之间的时差为+2 小时。 夏令时目前正在进行中。

公司介绍

在这个机场,你可以找到跳伞中心。 这个机场上的公司有Vliegles.nl 和 CessAir。

体会

在这个机场有飞行课程。 你可以在没有任何经验的情况下预订飞行课程。 在Vliegveld Midden-Zeeland 预订最多的飞行课程类型是Cessna flying lesson。 这些课程的价格从€ 149开始。 在这里阅读更多关于Cessna flying lesson的信息。你也可以在这个网站上进行预订。

你可以在这个机场与经验丰富的教练进行双人跳伞。 这些跳伞包括自由落体。 在Vliegveld Midden-Zeeland 进行跳伞的费用是€ 209。 在这里预订Skydive Zeeland

跑道

Id 标题 侧风 逆风 侧风 %
9/27 087°-267° 13 kt 3 kt 97 %

逆风成分最大的方向会被突出显示,并用于横风计算。 这并不一定意味着这个方向在使用。

乌云

- NSC 没有观察到明显的云

温度 & 天气

温度 15 °C
露点 12 °C
相对湿度 82%
Kp-index 2 (0-9)

白天

日出
07:51
中午
13:34
日落
19:17 (6h 27m)

小工具

你想在你的网站上有一个关于Vliegveld Midden-Zeeland 的当前航空天气(METAR)的小部件吗?

</> 显示HTML代码

我们和第三方通过cookies跟踪您在我们网站上的上网行为。如果您继续,我们认为您同意我们的cookie政策。 了解更多